Time;durP1;ratioP1;P1;durP2;ratioP2;P2;SDS_P1;SDS_P2;PMS_P1;PMS_P2;Temp;Humidity;BMP_temperature;BMP_pressure;BME280_temperature;BME280_humidity;BME280_pressure;Samples;Min_cycle;Max_cycle;Signal;HPM_P1;HPM_P2
2022/03/11 00:00:05;;;;;;;;;24.75;24.00;;;;;11.61;51.40;100662.91;5051839;28;47699;-83
2022/03/11 00:02:35;;;;;;;;;28.25;27.00;;;;;11.32;52.01;100616.25;5089388;27;45467;-82
2022/03/11 00:05:01;;;;;;;;;26.25;22.75;;;;;11.58;51.91;100669.09;5057714;28;45426;-82
2022/03/11 00:07:30;;;;;;;;;24.75;24.50;;;;;11.57;51.93;100662.03;5056763;28;45293;-81
2022/03/11 00:09:57;;;;;;;;;30.75;27.25;;;;;11.54;51.63;100654.13;5088811;27;45270;-83
2022/03/11 00:12:24;;;;;;;;;28.50;26.75;;;;;11.53;52.00;100654.97;5057569;28;45426;-82
2022/03/11 00:14:51;;;;;;;;;29.25;27.00;;;;;11.52;52.47;100652.34;5058254;28;45416;-84
2022/03/11 00:17:16;;;;;;;;;26.75;26.00;;;;;10.70;52.32;100527.34;5058720;28;45414;-84
2022/03/11 00:19:41;;;;;;;;;23.50;23.50;;;;;10.82;52.23;100523.88;5060864;28;45909;-83
2022/03/11 00:22:10;;;;;;;;;27.25;25.50;;;;;11.47;52.10;100638.28;5061729;28;45396;-83
2022/03/11 00:24:36;;;;;;;;;26.25;26.25;;;;;11.09;52.27;100574.03;5060532;28;45232;-83
2022/03/11 00:27:05;;;;;;;;;27.50;26.00;;;;;10.97;52.39;100544.09;5060367;28;45484;-81
2022/03/11 00:29:31;;;;;;;;;24.00;23.75;;;;;10.95;52.87;100543.22;5091075;27;46397;-79
2022/03/11 00:31:57;;;;;;;;;30.75;30.25;;;;;11.04;51.72;100556.44;5059209;28;45557;-84
2022/03/11 00:34:23;;;;;;;;;27.00;26.00;;;;;11.05;52.59;100545.00;5042356;28;45411;-84
2022/03/11 00:36:49;;;;;;;;;31.50;26.75;;;;;11.16;52.33;100547.66;5061024;28;45354;-82
2022/03/11 00:39:15;;;;;;;;;25.50;23.50;;;;;11.63;52.04;100626.84;5079843;28;46244;-84
2022/03/11 00:41:41;;;;;;;;;22.75;21.75;;;;;11.60;52.40;100618.94;5063302;28;45312;-86
2022/03/11 00:44:07;;;;;;;;;24.25;21.25;;;;;11.57;52.39;100614.56;5081712;28;45266;-83
2022/03/11 00:46:36;;;;;;;;;27.25;23.75;;;;;11.25;52.98;100558.22;5065175;28;45671;-84
2022/03/11 00:49:03;;;;;;;;;31.75;28.00;;;;;10.96;53.39;100526.53;5060246;28;45469;-83
2022/03/11 00:51:28;;;;;;;;;25.00;23.75;;;;;11.09;52.93;100562.59;5059217;28;45428;-85
2022/03/11 00:53:54;;;;;;;;;23.75;23.00;;;;;10.91;52.49;100534.44;5059339;28;45246;-84
2022/03/11 00:56:19;;;;;;;;;29.25;26.00;;;;;11.19;53.43;100596.03;5060998;28;46057;-83
2022/03/11 00:58:46;;;;;;;;;28.25;23.25;;;;;11.23;53.57;100608.31;5061882;28;45888;-81
2022/03/11 01:01:11;;;;;;;;;26.25;23.75;;;;;11.14;54.27;100598.63;5058786;28;45282;-83
2022/03/11 01:03:37;;;;;;;;;23.25;22.25;;;;;11.10;53.76;100593.38;5059513;28;45795;-83
2022/03/11 01:06:02;;;;;;;;;24.00;23.00;;;;;11.06;54.00;100584.53;5062994;28;45272;-81
2022/03/11 01:08:27;;;;;;;;;23.00;18.75;;;;;11.20;53.50;100589.88;5080060;27;46051;-80
2022/03/11 01:10:53;;;;;;;;;25.50;24.75;;;;;11.23;53.25;100594.25;5061382;28;45547;-81
2022/03/11 01:13:18;;;;;;;;;24.50;21.25;;;;;11.28;53.69;100582.88;5061457;28;45885;-84
2022/03/11 01:15:44;;;;;;;;;26.00;23.75;;;;;11.32;52.80;100574.06;5060559;28;45432;-83
2022/03/11 01:18:09;;;;;;;;;25.75;22.25;;;;;11.38;53.21;100589.91;5060097;28;45316;-78
2022/03/11 01:20:35;;;;;;;;;19.25;17.50;;;;;11.36;53.18;100581.13;5059736;28;45496;-82
2022/03/11 01:23:00;;;;;;;;;28.00;23.75;;;;;11.30;52.84;100561.75;5058563;28;45385;-83
2022/03/11 01:25:26;;;;;;;;;28.50;24.50;;;;;11.36;53.16;100574.97;5059532;28;45329;-82
2022/03/11 01:27:51;;;;;;;;;25.25;20.25;;;;;11.36;52.81;100578.47;5058372;28;46020;-84
2022/03/11 01:30:17;;;;;;;;;29.75;24.00;;;;;11.42;53.44;100573.19;5058856;28;45428;-81
2022/03/11 01:32:43;;;;;;;;;27.00;26.50;;;;;11.38;52.69;100565.28;5059232;28;46070;-83
2022/03/11 01:35:10;;;;;;;;;22.75;22.50;;;;;11.41;53.42;100567.94;5061134;28;45432;-83
2022/03/11 01:37:35;;;;;;;;;28.25;25.00;;;;;11.42;52.98;100564.41;5061021;28;46156;-83
2022/03/11 01:40:02;;;;;;;;;32.75;29.25;;;;;11.38;52.63;100554.75;5060737;28;45254;-84
2022/03/11 01:42:28;;;;;;;;;27.50;25.50;;;;;11.16;53.38;100552.94;5062589;28;45523;-80
2022/03/11 01:44:53;;;;;;;;;27.00;25.25;;;;;11.14;54.08;100545.91;5060910;28;45361;-82
2022/03/11 01:47:19;;;;;;;;;27.25;24.50;;;;;11.17;53.85;100555.59;5058978;28;46387;-84
2022/03/11 01:49:45;;;;;;;;;28.25;24.00;;;;;11.19;53.98;100556.47;5058696;28;45351;-83
2022/03/11 01:52:13;;;;;;;;;32.75;24.00;;;;;11.09;54.36;100552.06;5060144;28;45444;-80
2022/03/11 01:54:41;;;;;;;;;23.25;23.25;;;;;10.97;54.36;100538.84;5058369;28;45339;-83
2022/03/11 01:57:08;;;;;;;;;31.75;29.50;;;;;11.07;54.48;100540.59;5057878;28;45427;-84
2022/03/11 01:59:33;;;;;;;;;26.75;26.00;;;;;10.81;54.28;100493.13;5058915;28;45415;-83
2022/03/11 02:01:59;;;;;;;;;22.50;19.25;;;;;10.89;54.81;100537.94;5060139;28;45400;-84
2022/03/11 02:04:24;;;;;;;;;29.75;23.25;;;;;10.78;55.07;100527.34;5058333;28;45374;-82
2022/03/11 02:06:50;;;;;;;;;27.25;24.50;;;;;10.54;55.35;100486.91;5058229;28;46210;-83
2022/03/11 02:09:16;;;;;;;;;25.50;24.25;;;;;10.81;55.05;100523.00;5058681;28;45556;-83
2022/03/11 02:11:41;;;;;;;;;30.00;27.00;;;;;10.85;55.47;100527.38;5060264;28;45440;-81
2022/03/11 02:14:06;;;;;;;;;15.75;15.50;;;;;10.81;54.29;100523.00;5057762;28;45293;-81
2022/03/11 02:16:37;;;;;;;;;24.50;19.00;;;;;10.88;55.24;100529.13;5057598;28;45396;-82
2022/03/11 02:19:05;;;;;;;;;24.25;21.25;;;;;10.97;54.82;100536.19;5058520;28;45314;-79
2022/03/11 02:21:34;;;;;;;;;32.25;20.75;;;;;10.86;55.08;100517.72;5058436;28;45317;-84
2022/03/11 02:24:01;;;;;;;;;22.00;20.00;;;;;10.89;55.00;100535.28;5057268;28;45236;-85
2022/03/11 02:26:29;;;;;;;;;24.75;22.25;;;;;10.91;55.49;100544.09;5057759;28;45310;-82
2022/03/11 02:28:57;;;;;;;;;25.75;22.75;;;;;10.97;55.48;100529.16;5039333;28;45345;-81
2022/03/11 02:31:27;;;;;;;;;14.00;13.50;;;;;10.76;55.37;100506.28;5057806;28;45456;-81
2022/03/11 02:33:52;;;;;;;;;24.75;22.50;;;;;10.89;55.74;100538.84;5058332;28;45793;-82
2022/03/11 02:36:21;;;;;;;;;22.00;19.00;;;;;10.76;56.21;100508.03;5058090;28;46035;-86
2022/03/11 02:38:48;;;;;;;;;28.00;25.25;;;;;10.82;55.79;100532.66;5058035;28;45457;-83
2022/03/11 02:41:13;;;;;;;;;24.50;22.75;;;;;10.76;56.14;100508.91;5056885;28;45216;-82
2022/03/11 02:43:41;;;;;;;;;24.00;22.00;;;;;10.82;56.05;100523.88;5059339;28;45490;-83
2022/03/11 02:46:07;;;;;;;;;28.00;23.50;;;;;10.63;55.66;100478.16;5063571;28;46407;-82
2022/03/11 02:48:33;;;;;;;;;21.50;21.25;;;;;10.75;55.50;100488.72;5057186;28;45456;-84
2022/03/11 02:50:58;;;;;;;;;26.00;23.50;;;;;10.79;56.27;100497.50;5057647;28;45343;-82
2022/03/11 02:53:24;;;;;;;;;26.50;23.25;;;;;10.88;55.91;100501.91;5067485;28;45502;-86
2022/03/11 02:55:49;;;;;;;;;30.00;26.25;;;;;10.80;56.54;100500.16;5057337;28;45341;-83
2022/03/11 02:58:15;;;;;;;;;28.75;22.00;;;;;10.72;56.60;100477.31;5058066;28;45564;-85
2022/03/11 03:00:40;;;;;;;;;18.75;17.00;;;;;10.59;56.47;100479.00;5075968;28;45436;-83
2022/03/11 03:03:06;;;;;;;;;28.00;24.25;;;;;10.34;57.59;100459.63;5060350;28;45364;-83
2022/03/11 03:05:32;;;;;;;;;23.50;23.50;;;;;10.52;57.36;100496.56;5059356;28;46237;-85
2022/03/11 03:07:57;;;;;;;;;25.00;25.00;;;;;10.49;57.75;100491.25;5058878;28;45440;-84
2022/03/11 03:10:23;;;;;;;;;26.75;23.25;;;;;10.47;58.05;100492.13;5056718;28;46744;-84
2022/03/11 03:12:48;;;;;;;;;22.75;20.00;;;;;10.42;57.55;100486.88;5060217;28;45427;-86
2022/03/11 03:15:14;;;;;;;;;21.25;20.25;;;;;10.31;58.09;100483.28;5057586;28;45334;-83
2022/03/11 03:17:39;;;;;;;;;25.00;25.00;;;;;10.23;58.15;100467.44;5057017;28;45244;-85
2022/03/11 03:20:07;;;;;;;;;24.25;21.50;;;;;10.31;58.24;100478.03;5064286;28;45397;-84
2022/03/11 03:22:33;;;;;;;;;24.50;22.25;;;;;10.04;57.88;100426.09;5063265;28;46139;-86
2022/03/11 03:24:59;;;;;;;;;23.50;23.50;;;;;10.12;58.32;100439.28;5059937;28;45453;-85
2022/03/11 03:27:24;;;;;;;;;17.75;10.50;;;;;10.28;58.29;100460.47;5058580;28;45503;-83
2022/03/11 03:29:50;;;;;;;;;26.75;23.00;;;;;10.22;58.43;100452.53;5058730;28;45373;-81
2022/03/11 03:32:15;;;;;;;;;25.50;23.25;;;;;9.68;59.45;100388.25;5068059;28;45564;-84
2022/03/11 03:34:41;;;;;;;;;22.00;21.75;;;;;9.99;59.60;100454.16;5059520;28;45420;-81
2022/03/11 03:37:09;;;;;;;;;26.75;25.00;;;;;9.90;60.10;100449.72;5061141;27;45374;-84
2022/03/11 03:39:39;;;;;;;;;24.00;19.00;;;;;9.97;59.27;100458.53;5059423;28;45399;-83
2022/03/11 03:42:06;;;;;;;;;24.50;24.50;;;;;9.74;60.73;100439.97;5059464;28;45568;-82
2022/03/11 03:44:32;;;;;;;;;24.25;21.50;;;;;9.85;60.64;100467.22;5058135;28;46287;-86
2022/03/11 03:46:57;;;;;;;;;29.00;25.50;;;;;9.83;60.33;100453.19;5079084;27;45437;-84
2022/03/11 03:49:23;;;;;;;;;23.75;22.50;;;;;9.83;60.56;100444.41;5059245;28;45314;-85
2022/03/11 03:51:48;;;;;;;;;31.00;25.00;;;;;9.72;60.36;100431.22;5060001;28;45259;-83
2022/03/11 03:54:15;;;;;;;;;30.25;26.50;;;;;9.83;60.79;100455.81;5061555;28;45310;-86
2022/03/11 03:56:42;;;;;;;;;29.50;25.75;;;;;9.76;60.95;100448.75;5072545;28;45449;-84
2022/03/11 03:59:09;;;;;;;;;31.25;23.25;;;;;9.58;61.02;100420.59;5061016;28;45272;-83
2022/03/11 04:01:37;;;;;;;;;23.75;23.50;;;;;9.75;61.31;100447.00;5059189;28;45333;-85
2022/03/11 04:04:03;;;;;;;;;23.75;22.50;;;;;9.68;61.03;100438.22;5060430;28;46668;-85
2022/03/11 04:06:30;;;;;;;;;18.50;18.50;;;;;9.34;61.42;100388.91;5060999;28;45235;-86
2022/03/11 04:08:56;;;;;;;;;22.50;20.50;;;;;9.61;61.77;100436.41;5059948;28;45529;-85
2022/03/11 04:11:26;;;;;;;;;15.50;15.50;;;;;9.23;62.26;100380.06;5060315;28;45330;-84
2022/03/11 04:13:52;;;;;;;;;23.75;19.50;;;;;9.56;61.75;100430.22;5060057;28;46096;-83
2022/03/11 04:16:19;;;;;;;;;18.00;16.25;;;;;9.56;62.56;100434.59;5061306;28;45337;-86
2022/03/11 04:18:46;;;;;;;;;27.75;25.75;;;;;9.43;62.44;100423.13;5061884;28;45461;-85
2022/03/11 04:21:12;;;;;;;;;26.25;22.25;;;;;9.28;62.66;100391.47;5061362;28;45418;-85
2022/03/11 04:23:38;;;;;;;;;15.00;13.25;;;;;9.54;61.88;100425.81;5060929;28;47213;-83
2022/03/11 04:26:03;;;;;;;;;25.50;20.50;;;;;9.38;62.45;100402.06;5060726;28;45303;-85
2022/03/11 04:28:29;;;;;;;;;19.75;19.25;;;;;9.55;62.80;100431.09;5061455;28;45341;-85
2022/03/11 04:30:54;;;;;;;;;19.25;15.25;;;;;9.55;62.27;100424.97;5062849;28;45443;-83
2022/03/11 04:33:21;;;;;;;;;24.50;18.50;;;;;9.47;63.13;100418.75;5067479;28;45882;-81
2022/03/11 04:35:47;;;;;;;;;21.00;19.25;;;;;9.28;62.95;100405.50;5080871;28;45325;-84
2022/03/11 04:38:12;;;;;;;;;20.00;19.50;;;;;9.37;62.68;100421.31;5062842;28;45410;-83
2022/03/11 04:40:38;;;;;;;;;14.00;12.50;;;;;9.38;62.92;100427.47;5081014;28;45297;-82
2022/03/11 04:43:04;;;;;;;;;18.25;16.25;;;;;9.31;63.33;100423.06;5067432;28;46046;-85
2022/03/11 04:45:29;;;;;;;;;15.25;15.25;;;;;9.33;63.21;100424.81;5059044;28;45488;-86
2022/03/11 04:47:55;;;;;;;;;20.50;20.50;;;;;9.32;63.50;100436.19;5059577;28;45255;-85
2022/03/11 04:50:20;;;;;;;;;21.00;18.50;;;;;9.04;63.39;100386.94;5061101;28;45338;-84
2022/03/11 04:52:46;;;;;;;;;17.50;14.75;;;;;9.03;63.52;100386.03;5060183;28;45425;-84
2022/03/11 04:55:12;;;;;;;;;23.25;20.50;;;;;8.96;63.50;100360.59;5060297;28;45309;-78
2022/03/11 04:57:37;;;;;;;;;18.25;15.00;;;;;9.35;63.14;100425.69;5060663;28;45548;-85
2022/03/11 05:00:03;;;;;;;;;17.75;16.50;;;;;9.26;63.67;100411.63;5062213;28;45422;-84
2022/03/11 05:02:30;;;;;;;;;18.00;16.50;;;;;9.30;63.93;100416.00;5060680;28;45503;-85
2022/03/11 05:04:56;;;;;;;;;16.25;16.25;;;;;9.31;63.03;100408.16;5062684;28;45444;-84
2022/03/11 05:07:22;;;;;;;;;20.50;20.50;;;;;9.26;64.02;100408.97;5068432;28;45275;-81
2022/03/11 05:09:48;;;;;;;;;19.75;18.75;;;;;9.08;63.71;100384.31;5064739;28;45321;-85
2022/03/11 05:12:13;;;;;;;;;20.00;19.25;;;;;9.29;63.76;100414.25;5059195;28;45331;-85
2022/03/11 05:14:39;;;;;;;;;20.00;18.50;;;;;9.26;63.83;100412.50;5059385;28;45329;-85
2022/03/11 05:17:05;;;;;;;;;15.25;14.75;;;;;9.18;64.59;100410.66;5058648;28;45366;-84
2022/03/11 05:19:30;;;;;;;;;19.50;15.00;;;;;9.13;64.83;100408.03;5059260;28;45402;-85
2022/03/11 05:21:56;;;;;;;;;19.00;17.00;;;;;9.12;65.13;100416.78;5059547;28;45338;-82
2022/03/11 05:24:21;;;;;;;;;18.00;18.00;;;;;9.16;64.51;100404.53;5059913;28;45487;-86
2022/03/11 05:26:48;;;;;;;;;17.50;14.50;;;;;9.02;64.59;100375.50;5059282;28;45358;-85
2022/03/11 05:29:14;;;;;;;;;20.00;17.00;;;;;9.13;64.91;100405.41;5059988;28;45507;-84
2022/03/11 05:31:40;;;;;;;;;14.25;14.25;;;;;9.12;64.97;100401.00;5060898;28;46394;-86
2022/03/11 05:34:07;;;;;;;;;16.75;14.75;;;;;8.94;64.76;100378.09;5061808;28;45283;-87
2022/03/11 05:36:32;;;;;;;;;14.75;14.75;;;;;9.10;64.82;100392.22;5061498;28;45444;-86
2022/03/11 05:38:58;;;;;;;;;14.25;13.00;;;;;8.95;64.69;100363.22;5061780;28;45274;-84
2022/03/11 05:41:23;;;;;;;;;17.50;17.25;;;;;9.11;64.80;100389.59;5060687;28;45895;-83
2022/03/11 05:43:48;;;;;;;;;19.75;15.50;;;;;8.75;65.53;100339.41;5072142;28;45578;-85
2022/03/11 05:46:14;;;;;;;;;17.50;17.50;;;;;8.94;65.80;100382.47;5080222;28;45252;-84
2022/03/11 05:48:40;;;;;;;;;17.75;13.75;;;;;8.80;65.39;100354.31;5068102;28;45371;-84
2022/03/11 05:51:05;;;;;;;;;12.75;12.50;;;;;8.96;65.49;100378.97;5058920;28;46116;-85
2022/03/11 05:53:31;;;;;;;;;13.00;11.25;;;;;8.88;65.34;100366.66;5058403;28;45321;-85
2022/03/11 05:55:56;;;;;;;;;10.75;10.50;;;;;8.85;65.12;100362.25;5058485;28;45302;-84
2022/03/11 05:58:22;;;;;;;;;3.25;2.00;;;;;8.85;65.87;100367.50;5058584;28;45528;-83
2022/03/11 06:00:47;;;;;;;;;15.25;12.50;;;;;8.74;65.48;100342.88;5057360;28;46095;-83
2022/03/11 06:03:13;;;;;;;;;17.25;17.25;;;;;8.88;65.58;100379.78;5057303;28;45239;-83
2022/03/11 06:05:38;;;;;;;;;12.00;12.00;;;;;8.82;65.76;100364.84;5058477;28;45397;-85
2022/03/11 06:08:04;;;;;;;;;13.00;13.00;;;;;8.76;65.93;100354.31;5058911;28;45358;-84
2022/03/11 06:10:29;;;;;;;;;13.75;11.50;;;;;8.91;65.98;100385.03;5062017;28;47224;-82
2022/03/11 06:12:54;;;;;;;;;13.50;13.50;;;;;8.83;66.41;100366.59;5059048;28;45396;-83
2022/03/11 06:15:20;;;;;;;;;20.50;15.75;;;;;8.96;65.59;100384.22;5057017;28;45321;-85
2022/03/11 06:17:45;;;;;;;;;15.25;14.25;;;;;8.96;65.20;100378.09;5060840;28;45422;-85
2022/03/11 06:20:13;;;;;;;;;8.00;8.00;;;;;8.88;65.81;100359.66;5082889;27;46044;-81
2022/03/11 06:22:48;;;;;;;;;9.25;9.25;;;;;8.65;66.26;100327.03;5072340;28;45825;-84
2022/03/11 06:25:14;;;;;;;;;12.25;12.25;;;;;8.72;66.09;100324.50;5060101;28;45306;-84
2022/03/11 06:27:40;;;;;;;;;10.75;10.00;;;;;9.02;65.80;100376.38;5056985;28;45211;-81
2022/03/11 06:30:06;;;;;;;;;13.50;13.50;;;;;9.03;65.61;100377.28;5056906;28;46458;-81
2022/03/11 06:32:31;;;;;;;;;14.75;14.75;;;;;9.04;65.51;100369.41;5039844;28;45377;-84
2022/03/11 06:34:57;;;;;;;;;14.75;10.50;;;;;9.06;65.68;100375.56;5055592;28;45775;-77
2022/03/11 06:37:24;;;;;;;;;6.00;6.00;;;;;9.01;65.40;100358.84;5057938;28;45348;-80
2022/03/11 06:39:50;;;;;;;;;13.00;11.50;;;;;9.02;65.46;100344.84;5057532;28;45520;-80
2022/03/11 06:42:15;;;;;;;;;19.75;14.75;;;;;9.18;65.38;100376.50;5056512;28;45494;-81
2022/03/11 06:44:40;;;;;;;;;13.75;13.75;;;;;9.10;65.29;100355.41;5056384;28;45463;-80
2022/03/11 06:47:06;;;;;;;;;11.75;11.75;;;;;9.34;64.84;100370.50;5075671;28;45417;-77
2022/03/11 06:49:31;;;;;;;;;17.00;14.50;;;;;9.41;64.25;100372.28;5056825;28;46199;-79
2022/03/11 06:51:57;;;;;;;;;13.50;13.50;;;;;9.40;64.09;100360.03;5056724;28;45278;-80
2022/03/11 06:54:22;;;;;;;;;9.75;9.75;;;;;9.53;64.13;100364.47;5059676;28;45309;-81
2022/03/11 06:56:47;;;;;;;;;10.75;10.75;;;;;9.40;64.25;100342.50;5058790;28;45451;-81
2022/03/11 06:59:13;;;;;;;;;8.75;8.00;;;;;9.39;63.85;100334.56;5057267;28;45964;-86
2022/03/11 07:01:38;;;;;;;;;7.50;7.50;;;;;9.55;63.85;100343.44;5067808;28;45489;-80
2022/03/11 07:04:04;;;;;;;;;8.50;8.50;;;;;9.54;63.81;100363.59;5064655;28;45398;-85
2022/03/11 07:06:29;;;;;;;;;10.00;10.00;;;;;9.60;63.90;100347.88;5060735;28;45519;-86
2022/03/11 07:08:55;;;;;;;;;15.50;11.00;;;;;9.60;63.02;100332.09;5059248;28;45513;-82
2022/03/11 07:11:20;;;;;;;;;13.25;13.25;;;;;9.90;63.01;100355.00;5059165;28;45187;-82
2022/03/11 07:13:46;;;;;;;;;13.75;11.50;;;;;9.61;62.63;100290.88;5058776;28;45628;-84
2022/03/11 07:16:12;;;;;;;;;13.50;10.75;;;;;9.89;62.30;100332.19;5058112;28;45254;-85
2022/03/11 07:18:37;;;;;;;;;9.50;9.25;;;;;9.87;62.64;100359.38;5058382;28;45975;-85
2022/03/11 07:21:03;;;;;;;;;11.00;10.25;;;;;9.99;62.30;100346.28;5058199;28;45261;-80
2022/03/11 07:23:29;;;;;;;;;13.75;12.50;;;;;9.84;62.03;100290.97;5058939;28;45331;-81
2022/03/11 07:25:55;;;;;;;;;8.25;8.25;;;;;10.17;61.72;100314.75;5061148;28;46093;-81
2022/03/11 07:28:20;;;;;;;;;12.00;8.75;;;;;10.45;61.54;100346.41;5062435;28;45396;-77
2022/03/11 07:30:47;;;;;;;;;8.75;8.75;;;;;10.40;60.71;100309.53;5059850;28;45337;-81
2022/03/11 07:33:12;;;;;;;;;11.25;9.75;;;;;10.53;60.76;100323.63;5049832;28;45525;-79
2022/03/11 07:35:38;;;;;;;;;13.75;10.00;;;;;10.62;60.64;100343.81;5059310;28;45392;-77
2022/03/11 07:38:03;;;;;;;;;10.00;9.00;;;;;10.49;60.96;100308.66;5064755;28;46036;-77
2022/03/11 07:40:29;;;;;;;;;8.00;8.00;;;;;10.71;60.36;100335.91;5061188;28;45413;-87
2022/03/11 07:42:54;;;;;;;;;6.25;6.00;;;;;10.55;60.13;100306.06;5058789;28;45274;-83
2022/03/11 07:45:20;;;;;;;;;8.50;8.50;;;;;10.77;60.30;100326.25;5062139;28;45232;-84
2022/03/11 07:47:45;;;;;;;;;10.00;9.25;;;;;10.84;59.53;100328.00;5060251;28;45266;-82
2022/03/11 07:50:11;;;;;;;;;9.25;8.50;;;;;10.81;59.78;100306.94;5061240;28;45329;-79
2022/03/11 07:52:38;;;;;;;;;6.75;6.75;;;;;10.93;59.03;100300.75;5058931;28;45248;-77
2022/03/11 07:55:08;;;;;;;;;12.00;10.00;;;;;11.05;58.63;100290.19;5057209;28;45530;-76
2022/03/11 07:57:36;;;;;;;;;5.75;5.00;;;;;11.15;58.93;100317.41;5069034;28;46343;-80
2022/03/11 08:00:08;;;;;;;;;8.00;5.00;;;;;11.04;58.62;100313.94;5076179;28;45222;-85
2022/03/11 08:02:34;;;;;;;;;7.25;7.00;;;;;11.08;59.00;100306.03;5067789;28;45523;-82
2022/03/11 08:04:59;;;;;;;;;7.75;6.50;;;;;11.27;58.19;100312.13;5058977;28;45220;-87
2022/03/11 08:07:25;;;;;;;;;9.75;9.25;;;;;11.45;57.71;100308.59;5057338;28;46626;-88
2022/03/11 08:09:50;;;;;;;;;10.00;9.00;;;;;11.45;57.91;100282.22;5061327;28;44756;-90
2022/03/11 08:12:16;;;;;;;;;9.50;8.25;;;;;11.51;56.83;100305.03;5070003;28;45385;-81
2022/03/11 08:14:41;;;;;;;;;10.25;9.00;;;;;11.12;57.52;100267.34;5070149;28;45144;-81
2022/03/11 08:17:07;;;;;;;;;9.25;8.25;;;;;11.09;57.68;100278.78;5065590;28;46544;-86
2022/03/11 08:19:33;;;;;;;;;7.75;7.75;;;;;11.32;57.90;100315.63;5057967;28;45349;-87
2022/03/11 08:22:00;;;;;;;;;5.50;5.50;;;;;11.21;58.16;100277.00;5069235;28;44674;-86
2022/03/11 08:24:26;;;;;;;;;9.00;7.75;;;;;11.38;57.09;100296.28;5081767;28;45317;-90
2022/03/11 08:26:52;;;;;;;;;10.50;8.00;;;;;11.36;57.35;100298.94;5048318;28;46250;-91
2022/03/11 08:29:19;;;;;;;;;9.00;9.00;;;;;11.30;57.62;100292.78;5062506;28;45398;-89
2022/03/11 08:31:46;;;;;;;;;8.75;8.50;;;;;11.25;56.68;100242.69;5038990;28;45337;-90
2022/03/11 08:34:13;;;;;;;;;7.25;7.25;;;;;11.39;57.77;100296.28;5062074;28;45330;-85
2022/03/11 08:36:39;;;;;;;;;7.00;7.00;;;;;11.67;56.91;100302.34;5055954;28;45976;-85
2022/03/11 08:39:06;;;;;;;;;7.75;5.75;;;;;11.73;56.97;100287.38;5060411;28;45462;-82
2022/03/11 08:41:32;;;;;;;;;7.75;7.75;;;;;11.92;56.55;100281.16;5061272;28;45405;-79
2022/03/11 08:43:59;;;;;;;;;8.25;6.00;;;;;11.62;55.73;100181.88;5061499;28;46007;-86
2022/03/11 08:46:26;;;;;;;;;8.50;7.00;;;;;12.23;55.36;100256.28;5067721;28;46964;-84
2022/03/11 08:48:52;;;;;;;;;9.75;9.75;;;;;12.49;54.43;100242.91;5072235;28;46026;-77
2022/03/11 08:51:18;;;;;;;;;3.00;3.00;;;;;12.72;53.98;100263.81;5084291;28;45235;-78
2022/03/11 08:53:43;;;;;;;;;5.00;5.00;;;;;12.41;53.93;100271.13;5071334;28;45248;-78
2022/03/11 08:56:09;;;;;;;;;8.00;6.75;;;;;12.52;53.42;100244.63;5057554;28;46089;-77
2022/03/11 08:58:34;;;;;;;;;9.50;8.00;;;;;12.96;52.82;100257.44;5071235;28;45324;-78
2022/03/11 09:01:00;;;;;;;;;11.75;7.00;;;;;13.20;52.71;100258.97;5060314;28;45440;-80
2022/03/11 09:03:25;;;;;;;;;7.50;5.75;;;;;13.49;51.67;100265.69;5061267;28;45465;-85
2022/03/11 09:05:51;;;;;;;;;8.50;7.50;;;;;13.76;50.88;100265.34;5061088;28;45402;-82
2022/03/11 09:08:17;;;;;;;;;4.75;4.75;;;;;14.86;48.73;100250.41;5060468;28;45417;-81
2022/03/11 09:10:42;;;;;;;;;6.00;6.00;;;;;15.93;45.55;100235.91;5059991;28;45507;-80
2022/03/11 09:13:08;;;;;;;;;5.50;5.50;;;;;16.34;44.67;100252.66;5059388;28;45505;-85
2022/03/11 09:15:33;;;;;;;;;5.75;5.75;;;;;16.07;45.19;100248.84;5060859;28;45416;-88
2022/03/11 09:17:59;;;;;;;;;6.00;6.00;;;;;16.17;44.69;100229.13;5063393;28;45528;-87
2022/03/11 09:20:24;;;;;;;;;6.00;4.50;;;;;16.32;44.51;100216.41;5066741;28;45249;-88
2022/03/11 09:22:50;;;;;;;;;4.25;4.25;;;;;16.01;44.34;100202.94;5064159;28;45240;-86
2022/03/11 09:25:18;;;;;;;;;5.25;4.00;;;;;16.33;44.08;100227.00;5073346;28;44959;-83
2022/03/11 09:27:45;;;;;;;;;5.75;5.75;;;;;16.83;43.28;100240.81;5065637;28;45243;-87
2022/03/11 09:30:11;;;;;;;;;4.00;4.00;;;;;17.46;42.07;100209.81;5070244;28;45388;-87
2022/03/11 09:32:37;;;;;;;;;4.75;4.25;;;;;18.43;40.78;100221.94;5082555;28;45353;-82
2022/03/11 09:35:04;;;;;;;;;4.50;4.50;;;;;19.34;38.11;100226.72;5062436;28;46178;-85
2022/03/11 09:37:30;;;;;;;;;6.75;5.00;;;;;20.44;36.53;100210.91;5062343;28;45355;-82
2022/03/11 09:39:55;;;;;;;;;5.00;5.00;;;;;23.20;32.60;100224.72;5060142;28;45244;-84
2022/03/11 09:42:21;;;;;;;;;4.00;4.00;;;;;21.96;34.19;100221.97;5060394;28;45365;-83
2022/03/11 09:44:53;;;;;;;;;6.00;4.67;;;;;21.14;35.06;100239.16;5059075;28;45362;-81
2022/03/11 09:47:19;;;;;;;;;2.67;2.00;;;;;21.63;32.98;100209.22;5059655;28;45447;-79
2022/03/11 09:49:46;;;;;;;;;3.67;3.67;;;;;20.30;35.17;100229.31;5058251;28;45343;-83
2022/03/11 09:52:12;;;;;;;;;4.67;3.67;;;;;19.06;37.35;100205.50;5059240;28;44839;-88
2022/03/11 09:54:38;;;;;;;;;2.67;2.67;;;;;17.50;39.85;100227.47;5058493;28;45398;-84
2022/03/11 09:57:04;;;;;;;;;4.00;4.00;;;;;16.77;41.47;100238.34;5047625;28;45456;-79
2022/03/11 09:59:29;;;;;;;;;3.00;1.00;;;;;15.93;43.03;100206.69;5049608;28;45583;-78
2022/03/11 10:01:55;;;;;;;;;4.33;3.00;;;;;15.36;44.79;100220.28;5054770;28;45430;-80
2022/03/11 10:04:22;;;;;;;;;3.00;3.00;;;;;15.26;45.14;100218.72;5033350;28;46189;-79
2022/03/11 10:06:49;;;;;;;;;3.75;3.75;;;;;16.08;44.04;100220.50;5037630;28;45416;-80
2022/03/11 10:09:18;;;;;;;;;2.00;2.00;;;;;16.19;43.33;100211.41;5038223;28;45341;-79
2022/03/11 10:11:46;;;;;;;;;3.75;2.75;;;;;15.78;44.58;100195.53;5038379;28;45388;-84
2022/03/11 10:14:11;;;;;;;;;3.25;3.25;;;;;15.49;44.97;100207.63;5037858;28;46092;-79
2022/03/11 10:16:37;;;;;;;;;7.50;4.50;;;;;15.19;46.23;100164.03;5041721;28;45623;-81
2022/03/11 10:19:04;;;;;;;;;7.25;7.25;;;;;14.94;47.73;100160.13;5053428;28;45407;-82
2022/03/11 10:21:35;;;;;;;;;4.75;4.75;;;;;14.25;48.63;100156.06;5056484;28;45309;-82
2022/03/11 10:24:05;;;;;;;;;6.00;3.00;;;;;14.46;49.18;100192.81;5058518;28;45491;-79
2022/03/11 10:26:55;;;;;;;;;4.00;4.00;;;;;15.03;48.47;100182.03;5050716;28;45401;-82
2022/03/11 10:29:24;;;;;;;;;6.00;4.25;;;;;16.79;44.71;100151.38;5057571;28;45386;-81
2022/03/11 10:31:52;;;;;;;;;4.00;4.00;;;;;18.79;40.76;100134.41;5046045;28;45224;-82
2022/03/11 10:34:17;;;;;;;;;3.00;3.00;;;;;20.72;37.02;100178.50;5051014;28;45323;-79
2022/03/11 10:36:51;;;;;;;;;4.00;2.00;;;;;21.53;35.38;100169.53;5037781;28;45824;-80
2022/03/11 10:39:28;;;;;;;;;5.00;5.00;;;;;20.49;36.12;100166.13;5037658;28;45228;-81
2022/03/11 10:41:56;;;;;;;;;4.33;3.67;;;;;19.62;37.83;100167.81;5037689;28;45375;-83
2022/03/11 10:44:26;;;;;;;;;3.67;3.67;;;;;19.08;38.62;100160.97;5037322;28;47097;-79
2022/03/11 10:46:53;;;;;;;;;3.00;3.00;;;;;18.28;40.06;100177.09;5021342;28;45328;-81
2022/03/11 10:49:29;;;;;;;;;6.00;3.00;;;;;17.67;41.33;100217.16;5057237;28;45300;-84
2022/03/11 10:51:54;;;;;;;;;5.67;5.67;;;;;17.24;42.50;100213.09;5057834;28;45596;-80
2022/03/11 10:54:26;;;;;;;;;4.00;4.00;;;;;16.75;43.40;100186.94;5058080;28;45864;-81
2022/03/11 10:56:52;;;;;;;;;4.33;4.33;;;;;16.35;44.20;100192.41;5051350;28;45252;-82
2022/03/11 10:59:27;;;;;;;;;5.75;5.75;;;;;15.77;45.86;100177.84;5037651;28;45527;-83
2022/03/11 11:01:57;;;;;;;;;2.00;2.00;;;;;15.40;47.17;100128.19;5036816;28;45227;-82
2022/03/11 11:04:25;;;;;;;;;3.00;3.00;;;;;15.70;46.91;100187.72;5020819;28;46620;-81
2022/03/11 11:06:51;;;;;;;;;4.00;4.00;;;;;15.56;46.84;100209.25;5038805;28;45363;-77
2022/03/11 11:09:18;;;;;;;;;5.50;4.50;;;;;15.46;47.94;100220.09;5038157;28;45300;-81
2022/03/11 11:11:44;;;;;;;;;5.75;4.00;;;;;15.27;47.61;100207.22;5041562;28;45300;-82